Terminal Aerodrome Forecast
Issued by NWS

Home | Current Version | Previous Version | Text Only | Print | Product List | Glossary Off
Versions: 1 2 3 4 5 6 7 8 9 10 11 12 13 14 15 16 17 18

000
FTUS43 KOAX 060926 AAC
TAFCDR
TAF AMD
KCDR 060926Z 0609/0706 01012KT 3SM -DZ BR SCT007 OVC025
      TEMPO 0610/0614 1SM -RA BR OVC005
     FM061500 02010KT P6SM BKN020
     FM061900 04010KT 4SM -SHRA BKN035
     FM070100 09007KT P6SM BKN045=

USA.gov is the U.S. government's official web portal to all federal, state and local government web resources and services.